createdAt,value
2018-09-25T00:02:28.268Z,15.60
2018-09-25T00:08:04.703Z,15.60
2018-09-25T00:10:41.256Z,15.60
2018-09-25T00:13:18.462Z,15.60
2018-09-25T00:15:56.161Z,15.60
2018-09-25T00:18:33.618Z,15.60
2018-09-25T00:21:10.738Z,15.60
2018-09-25T00:23:46.768Z,15.60
2018-09-25T00:26:23.684Z,15.60
2018-09-25T00:28:59.101Z,15.50
2018-09-25T00:31:34.296Z,15.50
2018-09-25T00:34:11.479Z,15.40
2018-09-25T00:36:46.621Z,15.50
2018-09-25T00:39:21.211Z,15.40
2018-09-25T00:41:55.796Z,15.40
2018-09-25T00:44:31.267Z,15.40
2018-09-25T00:47:05.809Z,15.40
2018-09-25T00:49:40.548Z,15.40
2018-09-25T00:52:15.208Z,15.40
2018-09-25T00:54:50.146Z,15.40
2018-09-25T00:57:24.523Z,15.40
2018-09-25T00:59:59.053Z,15.30
2018-09-25T01:02:34.324Z,15.30
2018-09-25T01:05:09.828Z,15.30
2018-09-25T01:07:44.453Z,15.30
2018-09-25T01:10:18.878Z,15.30
2018-09-25T01:12:53.143Z,15.30
2018-09-25T01:15:27.684Z,15.30
2018-09-25T01:18:02.226Z,15.30
2018-09-25T01:20:36.778Z,15.20
2018-09-25T01:23:11.338Z,15.30
2018-09-25T01:25:45.681Z,15.40
2018-09-25T01:28:20.066Z,15.40
2018-09-25T01:30:55.211Z,15.30
2018-09-25T01:33:30.379Z,15.30
2018-09-25T01:36:04.717Z,15.30
2018-09-25T01:38:39.250Z,15.30
2018-09-25T01:41:14.283Z,15.20
2018-09-25T01:43:48.668Z,15.30
2018-09-25T01:46:23.005Z,15.30
2018-09-25T01:48:57.294Z,15.30
2018-09-25T01:51:31.751Z,15.30
2018-09-25T01:54:05.991Z,15.30
2018-09-25T01:56:40.611Z,15.30
2018-09-25T01:59:15.018Z,15.30
2018-09-25T02:01:49.375Z,15.20
2018-09-25T02:04:23.728Z,15.20
2018-09-25T02:06:58.260Z,15.20
2018-09-25T02:09:32.650Z,15.10
2018-09-25T02:12:07.043Z,15.20
2018-09-25T02:14:42.693Z,15.30
2018-09-25T02:17:17.039Z,15.20
2018-09-25T02:19:51.407Z,15.20
2018-09-25T02:22:26.060Z,15.20
2018-09-25T02:25:00.353Z,15.10
2018-09-25T02:27:34.600Z,15.10
2018-09-25T02:30:09.243Z,15.10
2018-09-25T02:32:43.545Z,15.20
2018-09-25T02:35:17.901Z,15.10
2018-09-25T02:37:52.155Z,15.10
2018-09-25T02:40:26.517Z,15.10
2018-09-25T02:43:00.797Z,15.10
2018-09-25T02:45:35.013Z,15.00
2018-09-25T02:48:09.215Z,15.10
2018-09-25T02:50:43.603Z,15.00
2018-09-25T02:53:17.783Z,15.00
2018-09-25T02:55:52.075Z,15.00
2018-09-25T02:58:26.332Z,14.90
2018-09-25T03:01:00.713Z,14.90
2018-09-25T03:03:35.025Z,14.90
2018-09-25T03:06:09.395Z,14.90
2018-09-25T03:08:43.525Z,14.80
2018-09-25T03:11:17.588Z,14.80
2018-09-25T03:13:51.588Z,14.70
2018-09-25T03:16:25.833Z,14.70
2018-09-25T03:19:00.033Z,14.90
2018-09-25T03:21:34.075Z,14.90
2018-09-25T03:24:08.263Z,14.80
2018-09-25T03:26:42.505Z,14.70
2018-09-25T03:29:16.847Z,14.60
2018-09-25T03:31:50.966Z,14.70
2018-09-25T03:34:25.073Z,14.70
2018-09-25T03:37:00.921Z,14.80
2018-09-25T03:39:41.876Z,14.80
2018-09-25T03:42:16.203Z,14.80
2018-09-25T03:44:50.416Z,14.70
2018-09-25T03:47:24.747Z,14.60
2018-09-25T03:49:59.053Z,14.60
2018-09-25T03:52:33.321Z,14.60
2018-09-25T03:55:07.600Z,14.60
2018-09-25T03:57:41.793Z,14.60
2018-09-25T04:00:16.030Z,14.60
2018-09-25T04:02:50.161Z,14.50
2018-09-25T04:05:24.468Z,14.40
2018-09-25T04:07:59.613Z,14.30
2018-09-25T04:10:34.029Z,14.30
2018-09-25T04:13:08.224Z,14.30
2018-09-25T04:15:42.561Z,14.30
2018-09-25T04:18:16.596Z,14.40
2018-09-25T04:20:50.593Z,14.30
2018-09-25T04:23:24.627Z,14.30
2018-09-25T04:25:58.901Z,14.30
2018-09-25T04:28:33.355Z,14.30
2018-09-25T04:31:07.288Z,14.40
2018-09-25T04:33:41.436Z,14.30
2018-09-25T04:36:15.534Z,14.20
2018-09-25T04:38:49.786Z,14.00
2018-09-25T04:41:24.046Z,13.90
2018-09-25T04:43:58.229Z,13.80
2018-09-25T04:46:32.343Z,13.70
2018-09-25T04:49:06.573Z,13.60
2018-09-25T04:51:41.102Z,13.50
2018-09-25T04:54:15.428Z,13.30
2018-09-25T04:56:49.824Z,13.30
2018-09-25T04:59:24.236Z,13.40
2018-09-25T05:01:58.453Z,13.30
2018-09-25T05:04:33.065Z,13.30
2018-09-25T05:07:07.301Z,13.20
2018-09-25T05:09:41.593Z,13.10
2018-09-25T05:12:18.451Z,13.10
2018-09-25T05:14:52.871Z,13.10
2018-09-25T05:17:27.081Z,13.10
2018-09-25T05:20:01.414Z,13.00
2018-09-25T05:22:35.648Z,13.00
2018-09-25T05:25:09.787Z,13.00
2018-09-25T05:27:44.040Z,13.10
2018-09-25T05:30:19.955Z,13.20
2018-09-25T05:32:54.268Z,13.50
2018-09-25T05:35:29.436Z,13.70
2018-09-25T05:38:03.815Z,13.80
2018-09-25T05:40:39.010Z,13.80
2018-09-25T05:43:13.135Z,13.90
2018-09-25T05:45:47.403Z,14.00
2018-09-25T05:48:21.695Z,14.00
2018-09-25T05:50:56.760Z,14.20
2018-09-25T05:53:30.961Z,14.40
2018-09-25T05:56:05.114Z,14.50
2018-09-25T05:58:39.406Z,14.80
2018-09-25T06:01:13.692Z,14.80
2018-09-25T06:03:48.001Z,14.90
2018-09-25T06:06:22.161Z,15.20
2018-09-25T06:08:56.420Z,15.30
2018-09-25T06:11:31.736Z,15.30
2018-09-25T06:14:05.774Z,15.40
2018-09-25T06:16:39.949Z,15.60
2018-09-25T06:19:14.062Z,15.70
2018-09-25T06:21:49.086Z,15.80
2018-09-25T06:24:23.398Z,15.80
2018-09-25T06:26:57.751Z,16.10
2018-09-25T06:29:31.927Z,16.10
2018-09-25T06:32:07.099Z,16.10
2018-09-25T06:34:41.651Z,16.60
2018-09-25T06:37:16.019Z,16.70
2018-09-25T06:39:51.304Z,16.80
2018-09-25T06:42:25.489Z,16.90
2018-09-25T06:45:00.389Z,17.00
2018-09-25T06:47:34.617Z,17.30
2018-09-25T06:50:08.919Z,17.50
2018-09-25T06:52:44.151Z,17.70
2018-09-25T06:55:18.379Z,17.80
2018-09-25T06:57:52.729Z,18.00
2018-09-25T07:00:27.136Z,17.80
2018-09-25T07:03:02.574Z,17.80
2018-09-25T07:05:36.913Z,17.70
2018-09-25T07:08:11.529Z,18.00
2018-09-25T07:10:45.829Z,18.10
2018-09-25T07:13:20.648Z,18.50
2018-09-25T07:15:54.884Z,18.70
2018-09-25T07:18:29.055Z,18.60
2018-09-25T07:21:03.180Z,18.80
2018-09-25T07:23:37.504Z,18.50
2018-09-25T07:26:13.603Z,18.40
2018-09-25T07:28:47.740Z,18.50
2018-09-25T07:31:21.881Z,18.80
2018-09-25T07:33:56.241Z,18.80
2018-09-25T07:36:30.541Z,19.10
2018-09-25T07:39:04.748Z,19.30
2018-09-25T07:41:39.101Z,19.60
2018-09-25T07:44:13.348Z,19.20
2018-09-25T07:46:47.561Z,19.10
2018-09-25T07:49:21.766Z,19.30
2018-09-25T07:51:56.243Z,19.40
2018-09-25T07:54:30.561Z,19.80
2018-09-25T07:57:04.736Z,20.10
2018-09-25T07:59:39.109Z,20.10
2018-09-25T08:02:13.575Z,20.10
2018-09-25T08:04:47.753Z,19.80
2018-09-25T08:07:22.003Z,19.90
2018-09-25T08:09:56.188Z,20.10
2018-09-25T08:12:30.361Z,20.60
2018-09-25T08:15:05.508Z,20.50
2018-09-25T08:17:40.541Z,20.50
2018-09-25T08:20:14.998Z,20.60
2018-09-25T08:22:49.394Z,20.50
2018-09-25T08:25:23.656Z,20.20
2018-09-25T08:27:57.903Z,20.40
2018-09-25T08:30:32.236Z,20.20
2018-09-25T08:33:06.536Z,20.80
2018-09-25T08:35:40.854Z,20.60
2018-09-25T08:38:15.881Z,20.50
2018-09-25T08:40:49.891Z,20.50
2018-09-25T08:43:24.128Z,20.50
2018-09-25T08:45:58.427Z,20.50
2018-09-25T08:48:32.670Z,20.90
2018-09-25T08:51:06.948Z,21.30
2018-09-25T08:53:41.363Z,21.00
2018-09-25T08:56:15.561Z,21.20
2018-09-25T08:58:49.603Z,21.20
2018-09-25T09:01:29.362Z,21.80
2018-09-25T09:04:03.441Z,22.10
2018-09-25T09:06:37.717Z,22.10
2018-09-25T09:09:14.756Z,22.20
2018-09-25T09:11:49.418Z,22.50
2018-09-25T09:14:23.740Z,22.60
2018-09-25T09:16:58.120Z,22.20
2018-09-25T09:19:32.699Z,22.00
2018-09-25T09:22:06.955Z,21.80
2018-09-25T09:24:41.386Z,21.70
2018-09-25T09:27:15.641Z,21.70
2018-09-25T09:29:49.921Z,22.10
2018-09-25T09:32:23.925Z,22.20
2018-09-25T09:34:58.500Z,22.60
2018-09-25T09:37:32.595Z,22.80
2018-09-25T09:40:06.906Z,23.10
2018-09-25T09:42:41.114Z,22.60
2018-09-25T09:45:15.448Z,22.70
2018-09-25T09:47:49.504Z,22.80
2018-09-25T09:50:24.449Z,22.80
2018-09-25T09:52:58.585Z,22.50
2018-09-25T09:55:32.776Z,22.80
2018-09-25T09:58:07.088Z,22.50
2018-09-25T10:00:41.301Z,22.70
2018-09-25T10:03:15.621Z,22.40
2018-09-25T10:05:50.002Z,22.40
2018-09-25T10:08:24.133Z,22.50
2018-09-25T10:10:58.156Z,22.60
2018-09-25T10:13:32.180Z,22.50
2018-09-25T10:16:06.396Z,22.60
2018-09-25T10:18:40.732Z,22.50
2018-09-25T10:21:15.161Z,22.50
2018-09-25T10:23:49.461Z,22.40
2018-09-25T10:26:23.758Z,22.20
2018-09-25T10:28:57.856Z,22.60
2018-09-25T10:31:32.148Z,22.80
2018-09-25T10:34:06.966Z,22.20
2018-09-25T10:36:41.236Z,22.20
2018-09-25T10:39:16.301Z,22.80
2018-09-25T10:41:50.494Z,23.40
2018-09-25T10:44:24.714Z,22.90
2018-09-25T10:46:58.953Z,22.50
2018-09-25T10:49:33.291Z,22.40
2018-09-25T10:52:07.590Z,22.30
2018-09-25T10:54:41.823Z,22.70
2018-09-25T10:57:16.162Z,22.90
2018-09-25T10:59:50.449Z,22.60
2018-09-25T11:02:24.848Z,22.70
2018-09-25T11:04:59.003Z,23.20
2018-09-25T11:07:33.089Z,23.60
2018-09-25T11:10:07.344Z,23.00
2018-09-25T11:12:41.534Z,23.40
2018-09-25T11:15:15.742Z,22.70
2018-09-25T11:17:50.145Z,22.60
2018-09-25T11:20:24.794Z,22.40
2018-09-25T11:22:59.240Z,22.50
2018-09-25T11:25:33.878Z,22.60
2018-09-25T11:28:08.099Z,22.40
2018-09-25T11:30:44.777Z,22.80
2018-09-25T11:33:19.069Z,22.90
2018-09-25T11:35:53.111Z,23.20
2018-09-25T11:38:27.198Z,23.40
2018-09-25T11:41:01.546Z,23.80
2018-09-25T11:43:35.867Z,23.20
2018-09-25T11:46:10.105Z,22.80
2018-09-25T11:48:44.117Z,22.90
2018-09-25T11:51:18.358Z,23.60
2018-09-25T11:53:52.682Z,23.30
2018-09-25T11:56:26.972Z,23.40
2018-09-25T11:59:01.309Z,23.20
2018-09-25T12:01:36.087Z,23.20
2018-09-25T12:04:10.414Z,22.90
2018-09-25T12:06:44.769Z,23.00
2018-09-25T12:09:19.003Z,23.00
2018-09-25T12:11:53.251Z,23.10
2018-09-25T12:14:27.523Z,22.90
2018-09-25T12:17:01.784Z,23.00
2018-09-25T12:19:36.089Z,23.40
2018-09-25T12:22:13.292Z,23.10
2018-09-25T12:24:48.455Z,22.90
2018-09-25T12:27:22.703Z,23.20
2018-09-25T12:29:57.003Z,23.20
2018-09-25T12:32:32.179Z,23.00
2018-09-25T12:35:06.242Z,22.80
2018-09-25T12:37:40.523Z,22.90
2018-09-25T12:40:14.878Z,23.10
2018-09-25T12:42:49.835Z,23.60
2018-09-25T12:45:23.901Z,23.80
2018-09-25T12:47:58.849Z,23.90
2018-09-25T12:50:33.264Z,23.60
2018-09-25T12:53:09.240Z,23.70
2018-09-25T12:55:49.251Z,23.70
2018-09-25T12:58:23.669Z,24.10
2018-09-25T13:00:58.020Z,24.00
2018-09-25T13:03:32.268Z,23.50
2018-09-25T13:06:06.614Z,23.10
2018-09-25T13:08:40.786Z,23.20
2018-09-25T13:11:15.177Z,23.50
2018-09-25T13:13:50.233Z,23.50
2018-09-25T13:16:24.782Z,23.40
2018-09-25T13:18:59.101Z,23.10
2018-09-25T13:21:33.353Z,23.10
2018-09-25T13:24:07.613Z,22.90
2018-09-25T13:26:43.206Z,22.60
2018-09-25T13:29:28.725Z,22.80
2018-09-25T13:32:03.514Z,22.90
2018-09-25T13:34:37.752Z,23.40
2018-09-25T13:37:12.166Z,23.40
2018-09-25T13:39:46.368Z,23.70
2018-09-25T13:42:20.669Z,23.60
2018-09-25T13:44:55.109Z,22.60
2018-09-25T13:47:29.501Z,22.70
2018-09-25T13:50:03.636Z,22.90
2018-09-25T13:52:38.856Z,22.80
2018-09-25T13:55:13.069Z,22.80
2018-09-25T13:57:52.886Z,22.80
2018-09-25T14:00:27.116Z,22.50
2018-09-25T14:03:01.330Z,22.30
2018-09-25T14:05:35.622Z,22.40
2018-09-25T14:08:09.911Z,22.60
2018-09-25T14:10:44.339Z,22.80
2018-09-25T14:13:18.735Z,23.50
2018-09-25T14:15:52.996Z,23.20
2018-09-25T14:18:27.279Z,22.80
2018-09-25T14:21:01.514Z,22.60
2018-09-25T14:23:35.886Z,22.40
2018-09-25T14:26:10.974Z,22.60
2018-09-25T14:29:11.097Z,22.40
2018-09-25T14:31:47.976Z,22.80
2018-09-25T14:34:23.085Z,22.90
2018-09-25T14:37:06.883Z,22.80
2018-09-25T14:39:42.384Z,22.60
2018-09-25T14:42:19.353Z,22.40
2018-09-25T14:44:54.056Z,21.90
2018-09-25T14:47:29.447Z,21.60
2018-09-25T14:50:04.304Z,21.60
2018-09-25T14:52:43.934Z,21.30
2018-09-25T14:55:18.716Z,21.30
2018-09-25T14:57:54.243Z,21.40
2018-09-25T15:00:39.797Z,21.30
2018-09-25T15:03:23.126Z,21.20
2018-09-25T15:05:59.102Z,21.10
2018-09-25T15:11:18.206Z,21.40
2018-09-25T15:13:55.877Z,21.10
2018-09-25T15:19:35.394Z,20.80
2018-09-25T15:22:10.649Z,20.80
2018-09-25T15:24:51.326Z,20.70
2018-09-25T15:27:26.089Z,20.60
2018-09-25T15:30:01.344Z,20.40
2018-09-25T15:32:36.162Z,20.30
2018-09-25T15:35:11.883Z,20.30
2018-09-25T15:37:55.060Z,20.30
2018-09-25T15:40:31.949Z,20.20
2018-09-25T15:43:08.039Z,19.90
2018-09-25T15:45:43.639Z,19.30
2018-09-25T15:48:21.100Z,18.90
2018-09-25T15:51:02.828Z,18.70
2018-09-25T15:53:37.368Z,18.50
2018-09-25T15:56:11.576Z,18.50
2018-09-25T15:58:51.338Z,18.40
2018-09-25T16:01:31.139Z,18.20
2018-09-25T16:04:05.449Z,18.00
2018-09-25T16:06:39.793Z,17.90
2018-09-25T16:09:14.634Z,17.90
2018-09-25T16:11:49.009Z,17.80
2018-09-25T16:14:23.338Z,17.70
2018-09-25T16:16:57.648Z,17.70
2018-09-25T16:19:32.218Z,17.60
2018-09-25T16:22:09.026Z,17.60
2018-09-25T16:24:43.434Z,17.50
2018-09-25T16:27:17.756Z,17.50
2018-09-25T16:29:52.261Z,17.40
2018-09-25T16:32:26.644Z,17.30
2018-09-25T16:35:01.276Z,17.20
2018-09-25T16:37:36.506Z,17.20
2018-09-25T16:40:11.613Z,17.10
2018-09-25T16:42:45.988Z,17.10
2018-09-25T16:45:22.558Z,17.00
2018-09-25T16:47:56.906Z,16.90
2018-09-25T16:50:32.663Z,16.80
2018-09-25T16:53:07.044Z,16.80
2018-09-25T16:55:42.374Z,16.70
2018-09-25T16:58:16.602Z,16.60
2018-09-25T17:00:50.994Z,16.60
2018-09-25T17:03:25.314Z,16.50
2018-09-25T17:05:59.685Z,16.40
2018-09-25T17:08:39.692Z,16.40
2018-09-25T17:11:14.054Z,16.30
2018-09-25T17:13:48.379Z,16.30
2018-09-25T17:16:22.748Z,16.20
2018-09-25T17:18:56.983Z,16.20
2018-09-25T17:21:31.346Z,16.10
2018-09-25T17:24:05.654Z,16.00
2018-09-25T17:26:39.939Z,16.00
2018-09-25T17:29:14.285Z,16.00
2018-09-25T17:31:48.611Z,15.80
2018-09-25T17:34:23.912Z,15.80
2018-09-25T17:36:58.251Z,15.80
2018-09-25T17:39:32.514Z,15.80
2018-09-25T17:42:06.798Z,15.70
2018-09-25T17:44:41.762Z,15.60
2018-09-25T17:47:21.612Z,15.60
2018-09-25T17:49:55.827Z,15.60
2018-09-25T17:52:35.789Z,15.50
2018-09-25T17:55:11.016Z,15.50
2018-09-25T17:57:45.952Z,15.50
2018-09-25T18:00:24.054Z,15.50
2018-09-25T18:02:58.346Z,15.40
2018-09-25T18:05:38.189Z,15.40
2018-09-25T18:08:12.975Z,15.40
2018-09-25T18:10:48.447Z,15.30
2018-09-25T18:13:22.931Z,15.30
2018-09-25T18:15:57.301Z,15.30
2018-09-25T18:18:32.631Z,15.20
2018-09-25T18:21:06.934Z,15.20
2018-09-25T18:23:41.327Z,15.10
2018-09-25T18:26:15.524Z,15.10
2018-09-25T18:28:55.704Z,15.00
2018-09-25T18:31:35.582Z,14.90
2018-09-25T18:34:09.877Z,14.90
2018-09-25T18:36:44.113Z,14.90
2018-09-25T18:39:18.509Z,14.90
2018-09-25T18:41:52.799Z,14.80
2018-09-25T18:44:27.036Z,14.80
2018-09-25T18:47:01.362Z,14.80
2018-09-25T18:49:36.764Z,14.70
2018-09-25T18:52:11.140Z,14.70
2018-09-25T18:54:50.969Z,14.70
2018-09-25T18:57:25.679Z,14.60
2018-09-25T19:00:00.014Z,14.60
2018-09-25T19:02:34.364Z,14.60
2018-09-25T19:05:14.245Z,14.60
2018-09-25T19:07:48.793Z,14.60
2018-09-25T19:10:28.847Z,14.60
2018-09-25T19:13:03.129Z,14.60
2018-09-25T19:15:38.389Z,14.50
2018-09-25T19:18:12.616Z,14.50
2018-09-25T19:20:52.449Z,14.50
2018-09-25T19:23:28.039Z,14.50
2018-09-25T19:26:07.911Z,14.40
2018-09-25T19:28:42.725Z,14.30
2018-09-25T19:31:22.732Z,14.30
2018-09-25T19:33:58.808Z,14.30
2018-09-25T19:36:33.109Z,14.20
2018-09-25T19:39:07.848Z,14.20
2018-09-25T19:41:42.870Z,14.20
2018-09-25T19:44:26.432Z,14.20
2018-09-25T19:47:02.346Z,14.30
2018-09-25T19:49:37.552Z,14.40
2018-09-25T19:52:17.584Z,14.30
2018-09-25T19:54:52.386Z,14.30
2018-09-25T19:57:26.699Z,14.20
2018-09-25T20:00:06.709Z,14.10
2018-09-25T20:02:46.594Z,14.10
2018-09-25T20:05:20.906Z,14.00
2018-09-25T20:07:55.276Z,14.00
2018-09-25T20:10:31.497Z,14.10
2018-09-25T20:13:06.061Z,14.20
2018-09-25T20:15:40.491Z,14.20
2018-09-25T20:18:14.883Z,14.20
2018-09-25T20:20:50.079Z,14.10
2018-09-25T20:23:29.781Z,14.00
2018-09-25T20:26:09.458Z,13.90
2018-09-25T20:28:43.776Z,13.90
2018-09-25T20:31:17.859Z,13.90
2018-09-25T20:33:52.124Z,13.90
2018-09-25T20:36:31.809Z,13.90
2018-09-25T20:39:06.056Z,14.00
2018-09-25T20:41:40.251Z,14.00
2018-09-25T20:44:14.307Z,14.00
2018-09-25T20:46:48.594Z,14.10
2018-09-25T20:49:22.656Z,14.10
2018-09-25T20:51:57.933Z,14.10
2018-09-25T20:54:32.117Z,14.10
2018-09-25T20:57:12.068Z,14.10
2018-09-25T20:59:46.273Z,14.00
2018-09-25T21:02:20.529Z,13.90
2018-09-25T21:04:55.324Z,13.80
2018-09-25T21:07:29.780Z,13.80
2018-09-25T21:10:09.706Z,13.90
2018-09-25T21:12:44.754Z,13.80
2018-09-25T21:15:18.881Z,13.80
2018-09-25T21:17:52.949Z,13.80
2018-09-25T21:20:27.113Z,13.60
2018-09-25T21:23:01.607Z,13.60
2018-09-25T21:25:36.014Z,13.60
2018-09-25T21:28:10.416Z,13.80
2018-09-25T21:30:45.295Z,14.00
2018-09-25T21:33:20.367Z,14.10
2018-09-25T21:35:54.488Z,14.10
2018-09-25T21:38:28.728Z,14.10
2018-09-25T21:41:03.025Z,14.10
2018-09-25T21:43:37.246Z,14.10
2018-09-25T21:46:11.490Z,14.10
2018-09-25T21:48:45.668Z,14.00
2018-09-25T21:51:19.917Z,14.00
2018-09-25T21:56:37.171Z,14.00
2018-09-25T21:59:11.413Z,13.70
2018-09-25T22:01:46.114Z,13.80
2018-09-25T22:04:20.643Z,13.80
2018-09-25T22:06:55.028Z,13.80
2018-09-25T22:09:29.343Z,13.80
2018-09-25T22:12:03.601Z,13.80
2018-09-25T22:14:38.473Z,13.80
2018-09-25T22:17:12.565Z,13.80
2018-09-25T22:19:46.628Z,13.80
2018-09-25T22:22:20.868Z,13.80
2018-09-25T22:24:55.859Z,13.80
2018-09-25T22:27:30.084Z,13.80
2018-09-25T22:30:04.279Z,13.80
2018-09-25T22:32:38.588Z,13.80
2018-09-25T22:35:12.901Z,13.90
2018-09-25T22:37:47.384Z,13.90
2018-09-25T22:40:26.938Z,13.80
2018-09-25T22:43:01.379Z,13.80
2018-09-25T22:45:35.645Z,13.90
2018-09-25T22:48:09.822Z,14.00
2018-09-25T22:50:43.908Z,13.90
2018-09-25T22:53:18.167Z,13.90
2018-09-25T22:55:52.310Z,13.90
2018-09-25T22:58:26.515Z,13.80
2018-09-25T23:01:00.764Z,13.80
2018-09-25T23:03:34.985Z,13.80
2018-09-25T23:06:09.316Z,13.80
2018-09-25T23:08:49.198Z,13.70
2018-09-25T23:11:28.841Z,13.70
2018-09-25T23:14:02.948Z,13.60
2018-09-25T23:16:37.248Z,13.60
2018-09-25T23:19:11.973Z,13.60
2018-09-25T23:21:46.276Z,13.60
2018-09-25T23:24:20.608Z,13.60
2018-09-25T23:26:54.733Z,13.50
2018-09-25T23:29:28.886Z,13.40
2018-09-25T23:32:03.600Z,13.30
2018-09-25T23:34:37.780Z,13.30
2018-09-25T23:37:11.783Z,13.20
2018-09-25T23:39:46.828Z,13.10
2018-09-25T23:42:34.986Z,13.10
2018-09-25T23:45:39.633Z,13.10
2018-09-25T23:48:16.069Z,13.10
2018-09-25T23:51:20.323Z,13.20
2018-09-25T23:54:59.397Z,13.00
2018-09-25T23:57:40.203Z,13.00
